createdAt,value
2019-06-07T00:00:21.000Z,79.80
2019-06-07T00:01:21.000Z,79.96
2019-06-07T00:02:21.000Z,80.22
2019-06-07T00:03:21.000Z,80.27
2019-06-07T00:04:21.000Z,80.23
2019-06-07T00:05:21.000Z,80.09
2019-06-07T00:06:21.000Z,80.32
2019-06-07T00:07:21.000Z,80.56
2019-06-07T00:08:21.000Z,80.57
2019-06-07T00:09:22.000Z,80.14
2019-06-07T00:10:21.000Z,80.42
2019-06-07T00:11:21.000Z,80.71
2019-06-07T00:12:21.000Z,80.48
2019-06-07T00:13:21.000Z,80.66
2019-06-07T00:14:21.000Z,80.87
2019-06-07T00:15:21.000Z,80.15
2019-06-07T00:16:21.000Z,80.12
2019-06-07T00:17:21.000Z,80.77
2019-06-07T00:18:21.000Z,80.86
2019-06-07T00:19:21.000Z,80.49
2019-06-07T00:20:21.000Z,80.22
2019-06-07T00:21:21.000Z,80.16
2019-06-07T00:22:21.000Z,80.02
2019-06-07T00:23:21.000Z,80.31
2019-06-07T00:24:21.000Z,80.44
2019-06-07T00:25:21.000Z,80.42
2019-06-07T00:26:21.000Z,80.39
2019-06-07T00:27:21.000Z,80.08
2019-06-07T00:28:21.000Z,80.78
2019-06-07T00:29:21.000Z,80.83
2019-06-07T00:30:21.000Z,80.31
2019-06-07T00:31:21.000Z,80.48
2019-06-07T00:32:21.000Z,80.77
2019-06-07T00:33:21.000Z,80.64
2019-06-07T00:34:21.000Z,81.07
2019-06-07T00:35:21.000Z,80.76
2019-06-07T00:36:21.000Z,80.43
2019-06-07T00:37:21.000Z,80.63
2019-06-07T00:38:21.000Z,80.50
2019-06-07T00:39:21.000Z,80.32
2019-06-07T00:40:21.000Z,80.13
2019-06-07T00:41:21.000Z,80.05
2019-06-07T00:42:21.000Z,79.90
2019-06-07T00:43:21.000Z,80.72
2019-06-07T00:44:21.000Z,80.62
2019-06-07T00:45:21.000Z,80.76
2019-06-07T00:46:21.000Z,80.82
2019-06-07T00:47:21.000Z,80.69
2019-06-07T00:48:21.000Z,80.85
2019-06-07T00:49:21.000Z,80.63
2019-06-07T00:50:21.000Z,80.58
2019-06-07T00:51:21.000Z,80.62
2019-06-07T00:52:21.000Z,80.61
2019-06-07T00:53:21.000Z,80.84
2019-06-07T00:54:21.000Z,80.98
2019-06-07T00:55:21.000Z,80.52
2019-06-07T00:56:21.000Z,80.80
2019-06-07T00:57:21.000Z,81.34
2019-06-07T00:58:21.000Z,81.31
2019-06-07T00:59:21.000Z,80.96
2019-06-07T01:00:21.000Z,81.39
2019-06-07T01:01:21.000Z,81.37
2019-06-07T01:02:21.000Z,81.09
2019-06-07T01:03:21.000Z,81.29
2019-06-07T01:04:21.000Z,81.36
2019-06-07T01:05:21.000Z,81.47
2019-06-07T01:06:21.000Z,81.67
2019-06-07T01:07:21.000Z,81.89
2019-06-07T01:08:21.000Z,81.55
2019-06-07T01:09:21.000Z,81.06
2019-06-07T01:10:21.000Z,81.31
2019-06-07T01:11:21.000Z,81.39
2019-06-07T01:12:21.000Z,81.17
2019-06-07T01:13:21.000Z,81.58
2019-06-07T01:14:21.000Z,81.48
2019-06-07T01:15:21.000Z,81.36
2019-06-07T01:16:21.000Z,81.43
2019-06-07T01:17:21.000Z,81.59
2019-06-07T01:18:21.000Z,81.22
2019-06-07T01:19:21.000Z,81.02
2019-06-07T01:20:21.000Z,81.62
2019-06-07T01:21:21.000Z,81.25
2019-06-07T01:22:21.000Z,81.11
2019-06-07T01:23:21.000Z,81.09
2019-06-07T01:24:21.000Z,80.73
2019-06-07T01:25:21.000Z,81.35
2019-06-07T01:26:21.000Z,81.19
2019-06-07T01:27:21.000Z,81.85
2019-06-07T01:28:21.000Z,81.51
2019-06-07T01:29:21.000Z,81.23
2019-06-07T01:30:21.000Z,81.44
2019-06-07T01:31:21.000Z,81.51
2019-06-07T01:32:21.000Z,81.35
2019-06-07T01:33:21.000Z,81.06
2019-06-07T01:34:21.000Z,81.56
2019-06-07T01:35:21.000Z,81.31
2019-06-07T01:36:21.000Z,81.10
2019-06-07T01:37:21.000Z,81.27
2019-06-07T01:38:21.000Z,81.80
2019-06-07T01:39:21.000Z,81.39
2019-06-07T01:40:21.000Z,81.85
2019-06-07T01:41:21.000Z,81.46
2019-06-07T01:42:21.000Z,81.56
2019-06-07T01:43:21.000Z,81.20
2019-06-07T01:44:21.000Z,81.49
2019-06-07T01:45:21.000Z,81.86
2019-06-07T01:46:21.000Z,81.59
2019-06-07T01:47:21.000Z,81.72
2019-06-07T01:48:21.000Z,81.52
2019-06-07T01:49:21.000Z,81.47
2019-06-07T01:50:21.000Z,81.23
2019-06-07T01:51:21.000Z,81.24
2019-06-07T01:52:21.000Z,81.08
2019-06-07T01:53:21.000Z,81.17
2019-06-07T01:54:21.000Z,81.58
2019-06-07T01:55:21.000Z,81.53
2019-06-07T01:56:21.000Z,81.28
2019-06-07T01:57:21.000Z,81.71
2019-06-07T01:58:21.000Z,81.32
2019-06-07T01:59:21.000Z,81.81
2019-06-07T02:00:21.000Z,81.51
2019-06-07T02:01:21.000Z,81.77
2019-06-07T02:02:21.000Z,81.36
2019-06-07T02:03:21.000Z,81.72
2019-06-07T02:04:21.000Z,81.97
2019-06-07T02:05:21.000Z,82.06
2019-06-07T02:06:21.000Z,81.98
2019-06-07T02:07:21.000Z,81.92
2019-06-07T02:08:21.000Z,81.84
2019-06-07T02:09:21.000Z,81.84
2019-06-07T02:10:21.000Z,81.81
2019-06-07T02:11:21.000Z,81.49
2019-06-07T02:12:21.000Z,81.51
2019-06-07T02:13:21.000Z,81.27
2019-06-07T02:14:21.000Z,81.75
2019-06-07T02:15:21.000Z,81.34
2019-06-07T02:16:21.000Z,81.61
2019-06-07T02:17:21.000Z,81.71
2019-06-07T02:18:21.000Z,81.97
2019-06-07T02:19:21.000Z,81.79
2019-06-07T02:20:21.000Z,82.03
2019-06-07T02:21:21.000Z,81.81
2019-06-07T02:22:21.000Z,81.50
2019-06-07T02:23:21.000Z,81.61
2019-06-07T02:24:21.000Z,82.18
2019-06-07T02:25:21.000Z,82.28
2019-06-07T02:26:21.000Z,82.24
2019-06-07T02:27:21.000Z,82.38
2019-06-07T02:28:21.000Z,82.25
2019-06-07T02:29:21.000Z,81.76
2019-06-07T02:30:21.000Z,81.62
2019-06-07T02:31:21.000Z,82.50
2019-06-07T02:32:21.000Z,82.66
2019-06-07T02:33:21.000Z,81.94
2019-06-07T02:34:21.000Z,82.09
2019-06-07T02:35:21.000Z,82.03
2019-06-07T02:36:21.000Z,82.28
2019-06-07T02:37:21.000Z,82.61
2019-06-07T02:38:21.000Z,82.81
2019-06-07T02:39:21.000Z,82.68
2019-06-07T02:40:21.000Z,82.60
2019-06-07T02:41:21.000Z,82.47
2019-06-07T02:42:21.000Z,82.12
2019-06-07T02:43:21.000Z,81.73
2019-06-07T02:44:21.000Z,82.48
2019-06-07T02:45:21.000Z,82.45
2019-06-07T02:46:21.000Z,82.59
2019-06-07T02:47:21.000Z,82.16
2019-06-07T02:48:21.000Z,82.20
2019-06-07T02:49:21.000Z,82.60
2019-06-07T02:50:21.000Z,81.91
2019-06-07T02:51:21.000Z,82.48
2019-06-07T02:52:21.000Z,82.36
2019-06-07T02:53:21.000Z,82.49
2019-06-07T02:54:21.000Z,82.12
2019-06-07T02:55:21.000Z,82.10
2019-06-07T02:56:21.000Z,81.93
2019-06-07T02:57:21.000Z,82.49
2019-06-07T02:58:21.000Z,82.69
2019-06-07T02:59:21.000Z,82.27
2019-06-07T03:00:21.000Z,82.10
2019-06-07T03:01:21.000Z,81.90
2019-06-07T03:02:20.000Z,82.67
2019-06-07T03:03:20.000Z,82.25
2019-06-07T03:04:20.000Z,82.47
2019-06-07T03:05:20.000Z,82.12
2019-06-07T03:06:20.000Z,82.07
2019-06-07T03:07:20.000Z,82.27
2019-06-07T03:08:20.000Z,81.87
2019-06-07T03:09:20.000Z,82.36
2019-06-07T03:10:20.000Z,82.15
2019-06-07T03:11:20.000Z,81.92
2019-06-07T03:12:20.000Z,82.15
2019-06-07T03:13:20.000Z,81.92
2019-06-07T03:14:20.000Z,82.60
2019-06-07T03:15:20.000Z,82.40
2019-06-07T03:16:20.000Z,82.62
2019-06-07T03:17:20.000Z,82.69
2019-06-07T03:18:20.000Z,82.39
2019-06-07T03:19:20.000Z,82.16
2019-06-07T03:20:20.000Z,82.43
2019-06-07T03:21:20.000Z,82.79
2019-06-07T03:22:20.000Z,82.10
2019-06-07T03:23:20.000Z,82.17
2019-06-07T03:24:20.000Z,82.37
2019-06-07T03:25:20.000Z,82.33
2019-06-07T03:26:20.000Z,81.97
2019-06-07T03:27:20.000Z,82.10
2019-06-07T03:28:20.000Z,82.13
2019-06-07T03:29:20.000Z,81.91
2019-06-07T03:30:20.000Z,81.83
2019-06-07T03:31:20.000Z,81.80
2019-06-07T03:32:21.000Z,81.83
2019-06-07T03:33:21.000Z,82.14
2019-06-07T03:34:21.000Z,81.66
2019-06-07T03:35:21.000Z,82.20
2019-06-07T03:36:21.000Z,81.95
2019-06-07T03:37:21.000Z,82.12
2019-06-07T03:38:21.000Z,81.82
2019-06-07T03:39:21.000Z,81.96
2019-06-07T03:40:21.000Z,81.94
2019-06-07T03:41:21.000Z,82.25
2019-06-07T03:42:21.000Z,82.15
2019-06-07T03:43:21.000Z,81.95
2019-06-07T03:44:21.000Z,82.10
2019-06-07T03:45:21.000Z,82.07
2019-06-07T03:46:21.000Z,82.38
2019-06-07T03:47:21.000Z,82.42
2019-06-07T03:48:21.000Z,81.95
2019-06-07T03:49:21.000Z,82.15
2019-06-07T03:50:21.000Z,82.54
2019-06-07T03:51:21.000Z,82.62
2019-06-07T03:52:21.000Z,82.36
2019-06-07T03:53:21.000Z,82.96
2019-06-07T03:54:21.000Z,82.51
2019-06-07T03:55:21.000Z,82.69
2019-06-07T03:56:21.000Z,83.07
2019-06-07T03:57:21.000Z,82.99
2019-06-07T03:58:21.000Z,82.59
2019-06-07T03:59:21.000Z,83.25
2019-06-07T04:00:21.000Z,83.32
2019-06-07T04:01:21.000Z,82.61
2019-06-07T04:02:21.000Z,82.87
2019-06-07T04:03:21.000Z,82.57
2019-06-07T04:04:21.000Z,82.94
2019-06-07T04:05:21.000Z,82.43
2019-06-07T04:06:21.000Z,82.72
2019-06-07T04:07:21.000Z,82.79
2019-06-07T04:08:21.000Z,83.11
2019-06-07T04:09:21.000Z,82.88
2019-06-07T04:10:21.000Z,83.32
2019-06-07T04:11:21.000Z,83.52
2019-06-07T04:12:21.000Z,83.28
2019-06-07T04:13:21.000Z,83.90
2019-06-07T04:14:21.000Z,84.05
2019-06-07T04:15:21.000Z,83.47
2019-06-07T04:16:21.000Z,83.98
2019-06-07T04:17:21.000Z,83.81
2019-06-07T04:18:21.000Z,83.74
2019-06-07T04:19:21.000Z,83.56
2019-06-07T04:20:21.000Z,83.77
2019-06-07T04:21:21.000Z,83.57
2019-06-07T04:22:21.000Z,83.46
2019-06-07T04:23:21.000Z,83.55
2019-06-07T04:24:21.000Z,83.19
2019-06-07T04:25:21.000Z,83.06
2019-06-07T04:26:21.000Z,82.82
2019-06-07T04:27:21.000Z,83.70
2019-06-07T04:28:21.000Z,83.36
2019-06-07T04:29:21.000Z,83.63
2019-06-07T04:30:21.000Z,83.52
2019-06-07T04:31:22.000Z,83.32
2019-06-07T04:32:21.000Z,83.62
2019-06-07T04:33:21.000Z,82.97
2019-06-07T04:34:21.000Z,83.34
2019-06-07T04:35:20.000Z,83.34
2019-06-07T04:36:21.000Z,83.22
2019-06-07T04:37:20.000Z,83.00
2019-06-07T04:38:20.000Z,82.65
2019-06-07T04:39:20.000Z,82.97
2019-06-07T04:40:20.000Z,83.26
2019-06-07T04:41:20.000Z,82.57
2019-06-07T04:42:20.000Z,82.97
2019-06-07T04:44:20.000Z,82.55
2019-06-07T04:45:20.000Z,82.71
2019-06-07T04:46:20.000Z,82.82
2019-06-07T04:47:20.000Z,82.65
2019-06-07T04:48:20.000Z,82.46
2019-06-07T04:49:20.000Z,82.24
2019-06-07T04:50:20.000Z,82.83
2019-06-07T04:51:20.000Z,82.80
2019-06-07T04:52:20.000Z,82.61
2019-06-07T04:53:20.000Z,82.52
2019-06-07T04:54:20.000Z,82.84
2019-06-07T04:55:20.000Z,82.78
2019-06-07T04:56:20.000Z,82.68
2019-06-07T04:57:20.000Z,82.69
2019-06-07T04:58:20.000Z,82.51
2019-06-07T05:00:20.000Z,82.57
2019-06-07T05:01:20.000Z,82.41
2019-06-07T05:02:20.000Z,82.99
2019-06-07T05:03:20.000Z,82.83
2019-06-07T05:04:20.000Z,82.67
2019-06-07T05:05:20.000Z,82.97
2019-06-07T05:06:20.000Z,82.81
2019-06-07T05:07:20.000Z,83.06
2019-06-07T05:08:20.000Z,82.51
2019-06-07T05:09:20.000Z,82.02
2019-06-07T05:10:20.000Z,82.17
2019-06-07T05:11:20.000Z,82.54
2019-06-07T05:12:20.000Z,82.23
2019-06-07T05:13:20.000Z,82.23
2019-06-07T05:14:20.000Z,82.35
2019-06-07T05:15:20.000Z,82.29
2019-06-07T05:16:20.000Z,82.36
2019-06-07T05:17:20.000Z,82.70
2019-06-07T05:18:20.000Z,82.51
2019-06-07T05:19:21.000Z,82.35
2019-06-07T05:20:21.000Z,82.13
2019-06-07T05:21:20.000Z,82.50
2019-06-07T05:22:20.000Z,82.25
2019-06-07T05:23:20.000Z,82.50
2019-06-07T05:24:20.000Z,82.51
2019-06-07T05:25:20.000Z,82.48
2019-06-07T05:26:20.000Z,82.44
2019-06-07T05:27:20.000Z,82.39
2019-06-07T05:28:20.000Z,82.28
2019-06-07T05:29:20.000Z,82.11
2019-06-07T05:30:20.000Z,82.14
2019-06-07T05:31:20.000Z,81.99
2019-06-07T05:32:20.000Z,81.84
2019-06-07T05:33:20.000Z,81.60
2019-06-07T05:34:20.000Z,81.85
2019-06-07T05:35:20.000Z,81.96
2019-06-07T05:36:21.000Z,82.17
2019-06-07T05:37:21.000Z,81.92
2019-06-07T05:38:21.000Z,81.83
2019-06-07T05:39:21.000Z,81.97
2019-06-07T05:40:21.000Z,82.32
2019-06-07T05:41:21.000Z,81.71
2019-06-07T05:42:21.000Z,81.89
2019-06-07T05:43:21.000Z,81.89
2019-06-07T05:44:21.000Z,81.83
2019-06-07T05:45:21.000Z,81.93
2019-06-07T05:46:21.000Z,82.01
2019-06-07T05:47:21.000Z,82.09
2019-06-07T05:48:21.000Z,81.65
2019-06-07T05:49:21.000Z,81.61
2019-06-07T05:50:21.000Z,81.46
2019-06-07T05:51:21.000Z,81.50
2019-06-07T05:52:21.000Z,81.36
2019-06-07T05:53:21.000Z,81.74
2019-06-07T05:54:21.000Z,81.52
2019-06-07T05:55:21.000Z,81.27
2019-06-07T05:56:21.000Z,81.20
2019-06-07T05:57:21.000Z,81.47
2019-06-07T05:58:21.000Z,81.33
2019-06-07T05:59:21.000Z,81.51
2019-06-07T06:00:21.000Z,81.49
2019-06-07T06:01:21.000Z,81.25
2019-06-07T06:02:21.000Z,81.41
2019-06-07T06:03:21.000Z,81.30
2019-06-07T06:04:21.000Z,80.61
2019-06-07T06:05:21.000Z,80.65
2019-06-07T06:06:21.000Z,81.39
2019-06-07T06:07:20.000Z,80.73
2019-06-07T06:08:20.000Z,80.57
2019-06-07T06:09:20.000Z,80.93
2019-06-07T06:10:20.000Z,80.98
2019-06-07T06:11:20.000Z,80.63
2019-06-07T06:12:20.000Z,80.33
2019-06-07T06:13:20.000Z,80.80
2019-06-07T06:14:20.000Z,80.70
2019-06-07T06:15:20.000Z,80.38
2019-06-07T06:16:20.000Z,80.39
2019-06-07T06:17:20.000Z,80.60
2019-06-07T06:18:20.000Z,80.40
2019-06-07T06:19:20.000Z,80.94
2019-06-07T06:20:20.000Z,80.62
2019-06-07T06:21:20.000Z,80.28
2019-06-07T06:22:20.000Z,80.36
2019-06-07T06:23:20.000Z,80.69
2019-06-07T06:24:20.000Z,80.57
2019-06-07T06:25:20.000Z,80.29
2019-06-07T06:26:20.000Z,80.38
2019-06-07T06:27:20.000Z,80.40
2019-06-07T06:28:20.000Z,80.33
2019-06-07T06:29:20.000Z,80.31
2019-06-07T06:30:20.000Z,80.03
2019-06-07T06:31:20.000Z,79.66
2019-06-07T06:32:20.000Z,79.86
2019-06-07T06:33:20.000Z,79.58
2019-06-07T06:34:20.000Z,79.52
2019-06-07T06:35:20.000Z,79.56
2019-06-07T06:36:20.000Z,79.74
2019-06-07T06:37:20.000Z,79.36
2019-06-07T06:38:20.000Z,79.21
2019-06-07T06:39:20.000Z,79.23
2019-06-07T06:40:20.000Z,79.52
2019-06-07T06:41:20.000Z,79.31
2019-06-07T06:42:20.000Z,79.04
2019-06-07T06:43:20.000Z,79.18
2019-06-07T06:44:20.000Z,78.96
2019-06-07T06:45:20.000Z,79.32
2019-06-07T06:46:20.000Z,79.45
2019-06-07T06:47:20.000Z,79.14
2019-06-07T06:48:20.000Z,78.61
2019-06-07T06:49:20.000Z,78.69
2019-06-07T06:50:20.000Z,78.72
2019-06-07T06:51:20.000Z,78.50
2019-06-07T06:52:20.000Z,78.79
2019-06-07T06:53:20.000Z,78.62
2019-06-07T06:54:20.000Z,78.61
2019-06-07T06:55:20.000Z,78.67
2019-06-07T06:56:20.000Z,78.59
2019-06-07T06:57:20.000Z,78.64
2019-06-07T06:58:20.000Z,78.51
2019-06-07T06:59:20.000Z,78.63
2019-06-07T07:00:20.000Z,78.04
2019-06-07T07:01:20.000Z,77.97
2019-06-07T07:02:20.000Z,78.32
2019-06-07T07:03:20.000Z,78.56
2019-06-07T07:04:20.000Z,78.12
2019-06-07T07:05:20.000Z,77.96
2019-06-07T07:06:20.000Z,77.38
2019-06-07T07:07:20.000Z,77.50
2019-06-07T07:08:20.000Z,77.62
2019-06-07T07:09:20.000Z,77.93
2019-06-07T07:10:20.000Z,77.37
2019-06-07T07:11:20.000Z,77.49
2019-06-07T07:12:20.000Z,77.17
2019-06-07T07:13:20.000Z,77.16
2019-06-07T07:14:20.000Z,76.98
2019-06-07T07:15:20.000Z,77.17
2019-06-07T07:16:20.000Z,76.39
2019-06-07T07:17:20.000Z,76.24
2019-06-07T07:18:20.000Z,76.63
2019-06-07T07:19:20.000Z,77.05
2019-06-07T07:20:20.000Z,77.26
2019-06-07T07:21:20.000Z,76.96
2019-06-07T07:22:20.000Z,76.77
2019-06-07T07:23:20.000Z,76.17
2019-06-07T07:24:20.000Z,75.91
2019-06-07T07:25:20.000Z,75.61
2019-06-07T07:26:20.000Z,75.90
2019-06-07T07:27:20.000Z,75.93
2019-06-07T07:28:20.000Z,76.33
2019-06-07T07:29:20.000Z,75.76
2019-06-07T07:30:20.000Z,75.63
2019-06-07T07:31:20.000Z,75.35
2019-06-07T07:32:20.000Z,75.51
2019-06-07T07:33:20.000Z,74.99
2019-06-07T07:34:20.000Z,74.67
2019-06-07T07:35:20.000Z,73.83
2019-06-07T07:36:21.000Z,73.79
2019-06-07T07:37:20.000Z,74.08
2019-06-07T07:38:20.000Z,73.63
2019-06-07T07:39:20.000Z,73.53
2019-06-07T07:40:20.000Z,73.70
2019-06-07T07:41:20.000Z,73.98
2019-06-07T07:42:20.000Z,73.93
2019-06-07T07:43:20.000Z,74.32
2019-06-07T07:44:20.000Z,74.56
2019-06-07T07:45:20.000Z,74.24
2019-06-07T07:46:20.000Z,73.77
2019-06-07T07:47:20.000Z,73.90
2019-06-07T07:48:20.000Z,73.82
2019-06-07T07:49:21.000Z,74.16
2019-06-07T07:50:20.000Z,74.00
2019-06-07T07:51:20.000Z,73.90
2019-06-07T07:52:20.000Z,73.83
2019-06-07T07:53:20.000Z,73.81
2019-06-07T07:54:20.000Z,73.86
2019-06-07T07:55:20.000Z,74.84
2019-06-07T07:56:20.000Z,73.70
2019-06-07T07:57:20.000Z,73.18
2019-06-07T07:58:20.000Z,73.06
2019-06-07T07:59:20.000Z,72.65
2019-06-07T08:00:20.000Z,72.75
2019-06-07T08:01:20.000Z,72.67
2019-06-07T08:02:20.000Z,72.84
2019-06-07T08:03:20.000Z,72.94
2019-06-07T08:04:20.000Z,72.42
2019-06-07T08:05:20.000Z,72.34
2019-06-07T08:06:20.000Z,72.19
2019-06-07T08:07:20.000Z,72.16
2019-06-07T08:08:20.000Z,71.57
2019-06-07T08:09:20.000Z,71.47
2019-06-07T08:10:20.000Z,71.42
2019-06-07T08:11:20.000Z,70.32
2019-06-07T08:12:20.000Z,70.04
2019-06-07T08:13:20.000Z,70.62
2019-06-07T08:14:20.000Z,70.44
2019-06-07T08:15:20.000Z,71.08
2019-06-07T08:16:20.000Z,71.25
2019-06-07T08:17:20.000Z,71.17
2019-06-07T08:18:20.000Z,70.63
2019-06-07T08:19:20.000Z,70.72
2019-06-07T08:20:20.000Z,70.06
2019-06-07T08:21:20.000Z,70.29
2019-06-07T08:22:20.000Z,70.28
2019-06-07T08:23:20.000Z,70.24
2019-06-07T08:24:20.000Z,70.67
2019-06-07T08:25:20.000Z,70.10
2019-06-07T08:26:20.000Z,70.58
2019-06-07T08:27:20.000Z,70.68
2019-06-07T08:28:20.000Z,70.01
2019-06-07T08:29:20.000Z,70.03
2019-06-07T08:30:20.000Z,69.64
2019-06-07T08:31:20.000Z,69.90
2019-06-07T08:32:20.000Z,69.74
2019-06-07T08:33:20.000Z,70.13
2019-06-07T08:34:20.000Z,69.70
2019-06-07T08:35:20.000Z,70.17
2019-06-07T08:36:20.000Z,69.12
2019-06-07T08:37:20.000Z,68.85
2019-06-07T08:38:20.000Z,69.63
2019-06-07T08:39:20.000Z,69.63
2019-06-07T08:40:20.000Z,69.59
2019-06-07T08:41:20.000Z,69.80
2019-06-07T08:42:20.000Z,69.31
2019-06-07T08:43:20.000Z,70.04
2019-06-07T08:44:20.000Z,69.02
2019-06-07T08:45:20.000Z,69.07
2019-06-07T08:46:20.000Z,68.43
2019-06-07T08:47:20.000Z,68.48
2019-06-07T08:48:20.000Z,67.94
2019-06-07T08:49:20.000Z,68.21
2019-06-07T08:50:20.000Z,67.79
2019-06-07T08:51:20.000Z,67.92
2019-06-07T08:52:20.000Z,67.49
2019-06-07T08:53:20.000Z,68.16
2019-06-07T08:54:20.000Z,67.92
2019-06-07T08:55:20.000Z,67.33
2019-06-07T08:56:20.000Z,67.69
2019-06-07T08:57:20.000Z,67.82
2019-06-07T08:58:20.000Z,67.51
2019-06-07T08:59:20.000Z,67.60
2019-06-07T09:00:20.000Z,67.72
2019-06-07T09:01:20.000Z,68.20
2019-06-07T09:02:20.000Z,67.41
2019-06-07T09:03:20.000Z,67.55
2019-06-07T09:04:20.000Z,67.71
2019-06-07T09:05:20.000Z,67.79
2019-06-07T09:06:20.000Z,67.93
2019-06-07T09:07:20.000Z,67.18
2019-06-07T09:08:20.000Z,67.19
2019-06-07T09:09:21.000Z,67.64
2019-06-07T09:10:21.000Z,67.53
2019-06-07T09:11:21.000Z,67.37
2019-06-07T09:12:21.000Z,66.89
2019-06-07T09:13:21.000Z,67.32
2019-06-07T09:14:21.000Z,67.05
2019-06-07T09:15:21.000Z,65.80
2019-06-07T09:16:21.000Z,66.10
2019-06-07T09:17:21.000Z,66.49
2019-06-07T09:18:21.000Z,66.33
2019-06-07T09:19:21.000Z,66.95
2019-06-07T09:20:21.000Z,66.53
2019-06-07T09:21:21.000Z,66.19
2019-06-07T09:22:21.000Z,66.56
2019-06-07T09:23:21.000Z,66.43
2019-06-07T09:24:21.000Z,65.96
2019-06-07T09:25:21.000Z,65.49
2019-06-07T09:26:21.000Z,65.50
2019-06-07T09:27:21.000Z,65.76
2019-06-07T09:28:21.000Z,65.61
2019-06-07T09:29:21.000Z,64.94
2019-06-07T09:30:21.000Z,64.98
2019-06-07T09:31:21.000Z,65.36
2019-06-07T09:32:21.000Z,65.31
2019-06-07T09:33:21.000Z,66.02
2019-06-07T09:34:21.000Z,65.51
2019-06-07T09:35:21.000Z,65.66
2019-06-07T09:36:21.000Z,65.42
2019-06-07T09:37:21.000Z,64.99
2019-06-07T09:38:21.000Z,65.59
2019-06-07T09:39:21.000Z,65.15
2019-06-07T09:40:20.000Z,65.16
2019-06-07T09:41:20.000Z,65.05
2019-06-07T09:42:20.000Z,64.55
2019-06-07T09:43:20.000Z,65.30
2019-06-07T09:44:20.000Z,64.34
2019-06-07T09:45:20.000Z,63.22
2019-06-07T09:46:20.000Z,63.32
2019-06-07T09:47:20.000Z,63.84
2019-06-07T09:48:20.000Z,62.95
2019-06-07T09:49:20.000Z,62.95
2019-06-07T09:50:20.000Z,62.92
2019-06-07T09:51:20.000Z,63.13
2019-06-07T09:52:20.000Z,63.06
2019-06-07T09:53:20.000Z,63.62
2019-06-07T09:54:20.000Z,63.22
2019-06-07T09:55:20.000Z,62.92
2019-06-07T09:56:20.000Z,62.76
2019-06-07T09:57:20.000Z,62.02
2019-06-07T09:58:20.000Z,60.97
2019-06-07T09:59:20.000Z,61.31
2019-06-07T10:00:21.000Z,61.11
2019-06-07T10:01:20.000Z,61.42
2019-06-07T10:02:20.000Z,61.18
2019-06-07T10:03:20.000Z,61.35
2019-06-07T10:04:20.000Z,61.93
2019-06-07T10:05:20.000Z,61.32
2019-06-07T10:06:20.000Z,62.27
2019-06-07T10:07:20.000Z,60.78
2019-06-07T10:08:20.000Z,62.00
2019-06-07T10:09:21.000Z,61.95
2019-06-07T10:10:21.000Z,61.53
2019-06-07T10:11:21.000Z,61.63
2019-06-07T10:12:21.000Z,60.94
2019-06-07T10:13:21.000Z,61.08
2019-06-07T10:14:21.000Z,60.26
2019-06-07T10:15:21.000Z,60.41
2019-06-07T10:16:21.000Z,60.28
2019-06-07T10:17:21.000Z,60.93
2019-06-07T10:18:21.000Z,60.37
2019-06-07T10:19:21.000Z,60.46
2019-06-07T10:20:21.000Z,59.99
2019-06-07T10:21:21.000Z,60.29
2019-06-07T10:22:21.000Z,59.55
2019-06-07T10:23:21.000Z,59.67
2019-06-07T10:24:21.000Z,60.50
2019-06-07T10:25:21.000Z,59.84
2019-06-07T10:26:21.000Z,59.93
2019-06-07T10:27:21.000Z,59.65
2019-06-07T10:28:21.000Z,59.88
2019-06-07T10:29:21.000Z,59.87
2019-06-07T10:30:21.000Z,59.73
2019-06-07T10:31:21.000Z,59.90
2019-06-07T10:32:21.000Z,60.24
2019-06-07T10:33:21.000Z,59.06
2019-06-07T10:34:21.000Z,58.43
2019-06-07T10:35:21.000Z,58.36
2019-06-07T10:36:21.000Z,57.87
2019-06-07T10:37:21.000Z,57.84
2019-06-07T10:38:21.000Z,58.20
2019-06-07T10:39:21.000Z,58.62
2019-06-07T10:40:21.000Z,58.94
2019-06-07T10:41:20.000Z,58.84
2019-06-07T10:42:20.000Z,59.08
2019-06-07T10:43:20.000Z,59.52
2019-06-07T10:44:20.000Z,59.15
2019-06-07T10:45:20.000Z,59.17
2019-06-07T10:46:20.000Z,59.12
2019-06-07T10:47:20.000Z,57.94
2019-06-07T10:48:20.000Z,57.75
2019-06-07T10:49:20.000Z,57.12
2019-06-07T10:50:20.000Z,57.39
2019-06-07T10:51:20.000Z,57.45
2019-06-07T10:52:20.000Z,57.34
2019-06-07T10:53:20.000Z,57.43
2019-06-07T10:54:20.000Z,58.14
2019-06-07T10:55:20.000Z,57.59
2019-06-07T10:56:20.000Z,57.75
2019-06-07T10:57:20.000Z,57.39
2019-06-07T10:58:20.000Z,57.61
2019-06-07T10:59:20.000Z,57.28
2019-06-07T11:00:20.000Z,57.43
2019-06-07T11:01:20.000Z,57.52
2019-06-07T11:02:20.000Z,57.97
2019-06-07T11:03:20.000Z,58.39
2019-06-07T11:04:21.000Z,58.01
2019-06-07T11:05:20.000Z,57.86
2019-06-07T11:06:20.000Z,56.99
2019-06-07T11:07:20.000Z,56.92
2019-06-07T11:08:20.000Z,56.53
2019-06-07T11:09:20.000Z,56.64
2019-06-07T11:10:20.000Z,56.63
2019-06-07T11:11:20.000Z,56.57
2019-06-07T11:12:20.000Z,56.38
2019-06-07T11:13:20.000Z,55.97
2019-06-07T11:14:20.000Z,55.82
2019-06-07T11:15:20.000Z,55.41
2019-06-07T11:16:20.000Z,55.42
2019-06-07T11:17:20.000Z,55.73
2019-06-07T11:18:20.000Z,55.94
2019-06-07T11:19:20.000Z,55.41
2019-06-07T11:20:20.000Z,55.82
2019-06-07T11:21:20.000Z,56.34
2019-06-07T11:22:20.000Z,56.55
2019-06-07T11:23:20.000Z,56.74
2019-06-07T11:24:20.000Z,56.29
2019-06-07T11:25:20.000Z,56.13
2019-06-07T11:26:21.000Z,56.17
2019-06-07T11:27:20.000Z,56.44
2019-06-07T11:28:20.000Z,56.04
2019-06-07T11:29:20.000Z,56.28
2019-06-07T11:30:20.000Z,55.93
2019-06-07T11:31:20.000Z,56.03
2019-06-07T11:32:20.000Z,56.12
2019-06-07T11:33:20.000Z,56.76
2019-06-07T11:34:20.000Z,56.31
2019-06-07T11:35:20.000Z,54.67
2019-06-07T11:36:20.000Z,54.82
2019-06-07T11:37:20.000Z,55.02
2019-06-07T11:38:20.000Z,54.66
2019-06-07T11:39:20.000Z,54.58
2019-06-07T11:40:20.000Z,54.45
2019-06-07T11:41:20.000Z,54.72
2019-06-07T11:42:20.000Z,55.02
2019-06-07T11:43:20.000Z,54.50
2019-06-07T11:44:20.000Z,54.50
2019-06-07T11:45:20.000Z,54.20
2019-06-07T11:46:20.000Z,54.92
2019-06-07T11:47:20.000Z,54.99
2019-06-07T11:48:20.000Z,55.04
2019-06-07T11:49:20.000Z,53.81
2019-06-07T11:50:20.000Z,52.80
2019-06-07T11:51:20.000Z,51.98
2019-06-07T11:52:20.000Z,52.85
2019-06-07T11:53:20.000Z,52.74
2019-06-07T11:54:20.000Z,52.93
2019-06-07T11:55:20.000Z,53.35
2019-06-07T11:56:20.000Z,52.87
2019-06-07T11:57:20.000Z,53.19
2019-06-07T11:58:20.000Z,53.87
2019-06-07T11:59:20.000Z,53.64
2019-06-07T12:00:20.000Z,52.82
2019-06-07T12:01:20.000Z,52.41
2019-06-07T12:02:20.000Z,52.40
2019-06-07T12:03:20.000Z,52.16
2019-06-07T12:04:20.000Z,52.07
2019-06-07T12:05:20.000Z,51.86
2019-06-07T12:06:20.000Z,52.12
2019-06-07T12:07:20.000Z,52.05
2019-06-07T12:08:20.000Z,52.55
2019-06-07T12:09:20.000Z,52.49
2019-06-07T12:10:20.000Z,51.97
2019-06-07T12:11:20.000Z,51.91
2019-06-07T12:12:20.000Z,51.57
2019-06-07T12:13:20.000Z,52.14
2019-06-07T12:14:20.000Z,52.55
2019-06-07T12:15:20.000Z,51.07
2019-06-07T12:16:20.000Z,51.22
2019-06-07T12:17:20.000Z,50.78
2019-06-07T12:18:20.000Z,51.12
2019-06-07T12:19:20.000Z,51.19
2019-06-07T12:20:20.000Z,50.83
2019-06-07T12:21:20.000Z,50.54
2019-06-07T12:22:20.000Z,51.16
2019-06-07T12:23:20.000Z,50.83
2019-06-07T12:24:20.000Z,50.60
2019-06-07T12:25:20.000Z,51.14
2019-06-07T12:26:20.000Z,51.41
2019-06-07T12:27:20.000Z,51.68
2019-06-07T12:28:20.000Z,50.76
2019-06-07T12:29:20.000Z,50.98
2019-06-07T12:30:20.000Z,50.94
2019-06-07T12:31:20.000Z,50.83
2019-06-07T12:32:20.000Z,50.98
2019-06-07T12:33:20.000Z,51.28
2019-06-07T12:34:20.000Z,51.09
2019-06-07T12:35:20.000Z,51.02
2019-06-07T12:36:20.000Z,50.78
2019-06-07T12:37:20.000Z,51.01
2019-06-07T12:38:20.000Z,50.00
2019-06-07T12:39:20.000Z,50.46
2019-06-07T12:40:20.000Z,50.23
2019-06-07T12:41:20.000Z,50.76
2019-06-07T12:42:20.000Z,50.76
2019-06-07T12:43:20.000Z,50.66
2019-06-07T12:44:20.000Z,51.19
2019-06-07T12:45:20.000Z,51.51
2019-06-07T12:46:20.000Z,51.54
2019-06-07T12:47:20.000Z,51.08
2019-06-07T12:48:20.000Z,50.23
2019-06-07T12:49:20.000Z,50.36
2019-06-07T12:50:21.000Z,50.60
2019-06-07T12:51:20.000Z,50.88
2019-06-07T12:52:21.000Z,50.69
2019-06-07T12:53:20.000Z,50.57
2019-06-07T12:54:20.000Z,50.22